createdAt,value
2019-05-21T00:00:59.110Z,309.91
2019-05-21T00:01:59.092Z,309.82
2019-05-21T00:02:59.079Z,309.85
2019-05-21T00:03:59.071Z,310.21
2019-05-21T00:04:59.058Z,310.28
2019-05-21T00:05:59.048Z,309.53
2019-05-21T00:06:59.413Z,309.85
2019-05-21T00:07:59.025Z,309.90
2019-05-21T00:08:59.017Z,309.88
2019-05-21T00:09:59.022Z,310.16
2019-05-21T00:10:59.032Z,309.95
2019-05-21T00:11:59.035Z,310.01
2019-05-21T00:12:58.966Z,310.16
2019-05-21T00:13:58.956Z,309.73
2019-05-21T00:14:59.051Z,310.48
2019-05-21T00:15:58.932Z,309.76
2019-05-21T00:16:58.924Z,309.91
2019-05-21T00:17:58.927Z,309.93
2019-05-21T00:18:58.899Z,310.17
2019-05-21T00:19:58.892Z,310.22
2019-05-21T00:20:58.884Z,309.80
2019-05-21T00:21:58.864Z,309.92
2019-05-21T00:22:58.855Z,310.09
2019-05-21T00:23:58.844Z,310.26
2019-05-21T00:24:58.828Z,310.57
2019-05-21T00:25:58.821Z,309.43
2019-05-21T00:26:58.811Z,310.02
2019-05-21T00:27:58.795Z,309.87
2019-05-21T00:28:58.805Z,309.92
2019-05-21T00:29:58.787Z,309.95
2019-05-21T00:30:58.760Z,310.13
2019-05-21T00:31:58.744Z,310.01
2019-05-21T00:32:58.747Z,309.74
2019-05-21T00:33:58.790Z,310.13
2019-05-21T00:34:58.733Z,309.82
2019-05-21T00:35:58.707Z,309.51
2019-05-21T00:36:58.713Z,310.06
2019-05-21T00:37:58.684Z,310.23
2019-05-21T00:38:58.675Z,309.69
2019-05-21T00:39:58.696Z,309.98
2019-05-21T00:40:58.643Z,310.00
2019-05-21T00:41:58.637Z,309.95
2019-05-21T00:42:58.630Z,310.14
2019-05-21T00:43:58.609Z,310.02
2019-05-21T00:44:58.633Z,309.84
2019-05-21T00:45:58.590Z,309.98
2019-05-21T00:46:58.584Z,309.54
2019-05-21T00:47:58.568Z,309.65
2019-05-21T00:48:58.566Z,310.17
2019-05-21T00:49:58.545Z,310.29
2019-05-21T00:50:58.560Z,309.99
2019-05-21T00:52:07.168Z,309.42
2019-05-21T00:52:59.506Z,309.55
2019-05-21T00:53:58.523Z,310.03
2019-05-21T00:54:58.488Z,310.06
2019-05-21T00:55:58.485Z,309.93
2019-05-21T00:56:58.526Z,310.09
2019-05-21T00:57:58.453Z,310.11
2019-05-21T00:58:58.444Z,310.74
2019-05-21T00:59:58.441Z,310.06
2019-05-21T01:00:58.426Z,310.31
2019-05-21T01:01:58.436Z,309.94
2019-05-21T01:02:58.398Z,309.44
2019-05-21T01:03:58.385Z,310.19
2019-05-21T01:05:01.027Z,309.84
2019-05-21T01:05:58.362Z,309.98
2019-05-21T01:06:58.362Z,309.65
2019-05-21T01:07:58.337Z,310.06
2019-05-21T01:08:58.359Z,309.68
2019-05-21T01:09:58.314Z,309.90
2019-05-21T01:10:58.347Z,309.91
2019-05-21T01:11:58.297Z,309.78
2019-05-21T01:12:58.305Z,309.62
2019-05-21T01:13:58.270Z,310.10
2019-05-21T01:14:58.252Z,309.90
2019-05-21T01:15:58.250Z,309.98
2019-05-21T01:16:58.236Z,309.64
2019-05-21T01:17:58.226Z,309.83
2019-05-21T01:18:58.236Z,309.70
2019-05-21T01:19:58.200Z,309.55
2019-05-21T01:20:58.185Z,309.54
2019-05-21T01:21:58.204Z,309.57
2019-05-21T01:22:58.176Z,309.88
2019-05-21T01:23:58.191Z,309.90
2019-05-21T01:24:58.149Z,310.08
2019-05-21T01:25:58.132Z,310.18
2019-05-21T01:26:58.118Z,309.55
2019-05-21T01:27:58.125Z,309.82
2019-05-21T01:28:58.094Z,309.88
2019-05-21T01:29:58.086Z,309.56
2019-05-21T01:30:58.077Z,309.57
2019-05-21T01:31:58.079Z,309.70
2019-05-21T01:32:58.067Z,309.85
2019-05-21T01:33:58.038Z,309.93
2019-05-21T01:34:58.079Z,310.02
2019-05-21T01:35:58.016Z,309.54
2019-05-21T01:36:58.006Z,310.09
2019-05-21T01:37:57.994Z,309.83
2019-05-21T01:38:58.021Z,309.98
2019-05-21T01:39:57.981Z,309.92
2019-05-21T01:40:57.995Z,309.69
2019-05-21T01:41:57.978Z,309.69
2019-05-21T01:42:57.932Z,309.38
2019-05-21T01:43:57.944Z,309.44
2019-05-21T01:44:57.921Z,309.85
2019-05-21T01:45:57.907Z,309.83
2019-05-21T01:46:57.887Z,309.80
2019-05-21T01:47:57.876Z,309.89
2019-05-21T01:48:57.866Z,309.20
2019-05-21T01:49:57.854Z,309.75
2019-05-21T01:50:57.863Z,309.33
2019-05-21T01:51:57.846Z,309.86
2019-05-21T01:52:57.820Z,309.74
2019-05-21T01:53:57.812Z,309.36
2019-05-21T01:54:57.811Z,310.30
2019-05-21T01:55:57.784Z,310.48
2019-05-21T01:56:57.780Z,309.62
2019-05-21T01:57:57.764Z,309.85
2019-05-21T01:58:57.751Z,309.88
2019-05-21T01:59:57.744Z,309.56
2019-05-21T02:00:57.807Z,309.83
2019-05-21T02:01:57.731Z,310.05
2019-05-21T02:02:57.731Z,309.38
2019-05-21T02:03:57.699Z,309.65
2019-05-21T02:04:57.688Z,309.74
2019-05-21T02:05:57.679Z,309.82
2019-05-21T02:06:57.657Z,309.81
2019-05-21T02:07:57.652Z,309.85
2019-05-21T02:08:57.637Z,309.75
2019-05-21T02:09:57.647Z,309.98
2019-05-21T02:10:57.637Z,310.08
2019-05-21T02:11:57.608Z,309.88
2019-05-21T02:12:57.599Z,309.46
2019-05-21T02:13:57.585Z,310.08
2019-05-21T02:14:57.570Z,309.66
2019-05-21T02:15:57.568Z,309.80
2019-05-21T02:16:57.547Z,309.99
2019-05-21T02:17:57.527Z,309.51
2019-05-21T02:18:57.548Z,309.70
2019-05-21T02:19:57.550Z,309.56
2019-05-21T02:20:57.500Z,309.45
2019-05-21T02:21:57.487Z,309.56
2019-05-21T02:22:58.298Z,309.26
2019-05-21T02:23:57.469Z,309.70
2019-05-21T02:24:57.478Z,309.60
2019-05-21T02:25:57.454Z,309.38
2019-05-21T02:26:57.425Z,309.59
2019-05-21T02:27:57.424Z,309.71
2019-05-21T02:28:57.413Z,309.84
2019-05-21T02:29:57.412Z,309.40
2019-05-21T02:30:57.401Z,309.67
2019-05-21T02:31:57.377Z,309.91
2019-05-21T02:32:57.365Z,309.90
2019-05-21T02:33:57.377Z,309.92
2019-05-21T02:34:57.341Z,310.10
2019-05-21T02:35:57.336Z,309.44
2019-05-21T02:36:57.325Z,309.57
2019-05-21T02:37:57.315Z,309.89
2019-05-21T02:38:57.302Z,309.49
2019-05-21T02:39:57.282Z,309.62
2019-05-21T02:40:57.277Z,309.76
2019-05-21T02:41:57.288Z,309.36
2019-05-21T02:42:57.244Z,309.71
2019-05-21T02:43:57.236Z,309.45
2019-05-21T02:44:57.244Z,309.66
2019-05-21T02:45:57.220Z,309.36
2019-05-21T02:46:57.218Z,309.47
2019-05-21T02:47:57.189Z,309.72
2019-05-21T02:48:57.193Z,309.76
2019-05-21T02:49:57.175Z,310.04
2019-05-21T02:50:57.174Z,309.81
2019-05-21T02:51:57.154Z,309.49
2019-05-21T02:52:57.149Z,309.46
2019-05-21T02:53:57.321Z,309.61
2019-05-21T02:54:57.121Z,309.38
2019-05-21T02:55:57.114Z,309.90
2019-05-21T02:56:57.096Z,309.87
2019-05-21T02:57:57.092Z,309.50
2019-05-21T02:58:57.100Z,309.09
2019-05-21T02:59:57.061Z,309.68
2019-05-21T03:00:57.049Z,310.15
2019-05-21T03:01:57.043Z,309.36
2019-05-21T03:02:57.020Z,309.71
2019-05-21T03:03:57.028Z,309.81
2019-05-21T03:04:56.999Z,309.74
2019-05-21T03:06:12.488Z,309.61
2019-05-21T03:06:57.976Z,310.10
2019-05-21T03:07:56.996Z,309.51
2019-05-21T03:08:56.970Z,309.58
2019-05-21T03:09:56.943Z,310.00
2019-05-21T03:10:56.942Z,309.68
2019-05-21T03:11:56.916Z,309.62
2019-05-21T03:12:56.909Z,309.52
2019-05-21T03:13:56.893Z,309.76
2019-05-21T03:14:56.914Z,309.74
2019-05-21T03:15:56.885Z,310.00
2019-05-21T03:16:56.877Z,309.95
2019-05-21T03:17:57.096Z,310.45
2019-05-21T03:18:56.841Z,309.78
2019-05-21T03:19:56.855Z,309.92
2019-05-21T03:20:56.814Z,309.90
2019-05-21T03:21:56.802Z,309.84
2019-05-21T03:22:56.801Z,310.17
2019-05-21T03:23:56.798Z,310.28
2019-05-21T03:25:01.380Z,310.19
2019-05-21T03:25:57.756Z,310.01
2019-05-21T03:26:56.753Z,310.46
2019-05-21T03:27:56.736Z,310.32
2019-05-21T03:28:56.744Z,310.49
2019-05-21T03:29:56.722Z,309.82
2019-05-21T03:30:56.699Z,310.42
2019-05-21T03:31:56.703Z,310.68
2019-05-21T03:32:56.682Z,310.18
2019-05-21T03:33:56.661Z,310.67
2019-05-21T03:34:56.675Z,310.48
2019-05-21T03:35:56.677Z,310.27
2019-05-21T03:36:56.700Z,310.62
2019-05-21T03:37:56.629Z,310.96
2019-05-21T03:38:56.622Z,310.95
2019-05-21T03:39:56.602Z,310.76
2019-05-21T03:40:56.592Z,310.66
2019-05-21T03:41:56.584Z,311.12
2019-05-21T03:42:56.587Z,311.21
2019-05-21T03:43:56.558Z,310.89
2019-05-21T03:45:00.364Z,310.82
2019-05-21T03:45:56.589Z,310.72
2019-05-21T03:46:56.527Z,311.13
2019-05-21T03:47:56.524Z,311.15
2019-05-21T03:48:56.494Z,310.55
2019-05-21T03:49:56.487Z,311.11
2019-05-21T03:50:56.474Z,311.20
2019-05-21T03:51:56.476Z,311.47
2019-05-21T03:52:56.485Z,311.46
2019-05-21T03:53:57.215Z,311.48
2019-05-21T03:54:56.461Z,311.50
2019-05-21T03:55:56.608Z,311.84
2019-05-21T03:56:56.455Z,311.88
2019-05-21T03:57:56.405Z,311.66
2019-05-21T03:58:56.463Z,311.39
2019-05-21T03:59:56.389Z,311.14
2019-05-21T04:00:56.358Z,311.12
2019-05-21T04:01:56.361Z,310.88
2019-05-21T04:02:56.366Z,311.40
2019-05-21T04:03:56.331Z,310.76
2019-05-21T04:04:56.333Z,310.74
2019-05-21T04:05:56.318Z,311.40
2019-05-21T04:06:56.301Z,311.22
2019-05-21T04:07:56.303Z,311.10
2019-05-21T04:08:56.371Z,310.92
2019-05-21T04:09:56.270Z,311.73
2019-05-21T04:10:56.252Z,310.68
2019-05-21T04:11:56.240Z,310.72
2019-05-21T04:12:56.247Z,311.06
2019-05-21T04:13:56.228Z,311.27
2019-05-21T04:14:56.206Z,311.67
2019-05-21T04:15:56.210Z,311.12
2019-05-21T04:16:56.287Z,311.11
2019-05-21T04:17:56.166Z,311.17
2019-05-21T04:18:56.229Z,311.52
2019-05-21T04:19:56.151Z,310.72
2019-05-21T04:20:56.149Z,310.76
2019-05-21T04:21:56.136Z,310.78
2019-05-21T04:22:56.125Z,310.55
2019-05-21T04:23:56.101Z,310.65
2019-05-21T04:24:56.090Z,310.93
2019-05-21T04:25:56.077Z,310.51
2019-05-21T04:26:56.074Z,310.88
2019-05-21T04:27:56.082Z,310.98
2019-05-21T04:28:56.253Z,311.24
2019-05-21T04:29:56.036Z,310.46
2019-05-21T04:30:56.018Z,310.43
2019-05-21T04:31:56.040Z,311.02
2019-05-21T04:32:56.007Z,310.73
2019-05-21T04:33:55.980Z,310.85
2019-05-21T04:34:55.982Z,310.79
2019-05-21T04:35:55.963Z,310.25
2019-05-21T04:37:09.792Z,310.75
2019-05-21T04:37:56.945Z,310.41
2019-05-21T04:38:55.987Z,310.25
2019-05-21T04:39:55.941Z,310.76
2019-05-21T04:40:55.912Z,310.65
2019-05-21T04:41:55.899Z,310.90
2019-05-21T04:42:55.892Z,311.51
2019-05-21T04:43:55.883Z,311.56
2019-05-21T04:44:55.904Z,311.95
2019-05-21T04:45:55.951Z,311.78
2019-05-21T04:46:55.846Z,312.49
2019-05-21T04:47:55.870Z,312.81
2019-05-21T04:48:55.871Z,312.75
2019-05-21T04:49:55.820Z,312.50
2019-05-21T04:50:55.877Z,312.92
2019-05-21T04:51:55.786Z,313.19
2019-05-21T04:52:55.778Z,312.82
2019-05-21T04:53:55.782Z,313.20
2019-05-21T04:54:55.757Z,313.31
2019-05-21T04:55:55.732Z,313.27
2019-05-21T04:56:55.729Z,313.46
2019-05-21T04:57:55.734Z,313.43
2019-05-21T04:58:55.710Z,314.41
2019-05-21T04:59:55.708Z,313.92
2019-05-21T05:00:55.702Z,314.73
2019-05-21T05:01:55.671Z,314.35
2019-05-21T05:02:55.664Z,314.10
2019-05-21T05:03:55.676Z,314.56
2019-05-21T05:04:55.634Z,314.18
2019-05-21T05:05:55.636Z,314.31
2019-05-21T05:06:55.616Z,313.88
2019-05-21T05:07:55.607Z,314.36
2019-05-21T05:08:55.597Z,314.39
2019-05-21T05:09:55.581Z,313.86
2019-05-21T05:10:55.577Z,314.00
2019-05-21T05:11:55.565Z,313.78
2019-05-21T05:12:55.554Z,314.21
2019-05-21T05:13:55.540Z,313.57
2019-05-21T05:14:55.528Z,314.13
2019-05-21T05:15:55.511Z,313.70
2019-05-21T05:16:55.518Z,313.70
2019-05-21T05:17:55.499Z,313.88
2019-05-21T05:18:55.484Z,313.71
2019-05-21T05:19:55.471Z,313.32
2019-05-21T05:20:55.461Z,313.54
2019-05-21T05:21:55.448Z,312.49
2019-05-21T05:22:55.438Z,313.08
2019-05-21T05:23:55.481Z,312.20
2019-05-21T05:24:55.409Z,312.92
2019-05-21T05:25:55.417Z,312.25
2019-05-21T05:26:55.391Z,312.22
2019-05-21T05:27:55.385Z,311.66
2019-05-21T05:28:55.402Z,311.77
2019-05-21T05:29:55.360Z,311.63
2019-05-21T05:30:55.351Z,311.48
2019-05-21T05:31:55.336Z,311.56
2019-05-21T05:32:55.324Z,311.53
2019-05-21T05:33:55.325Z,310.80
2019-05-21T05:34:55.449Z,310.59
2019-05-21T05:35:55.295Z,309.92
2019-05-21T05:36:55.280Z,310.01
2019-05-21T05:37:55.269Z,309.64
2019-05-21T05:38:55.281Z,308.58
2019-05-21T05:39:55.281Z,308.89
2019-05-21T05:40:55.254Z,308.88
2019-05-21T05:41:55.223Z,309.04
2019-05-21T05:42:55.240Z,308.74
2019-05-21T05:43:55.208Z,308.35
2019-05-21T05:44:55.199Z,308.38
2019-05-21T05:45:55.195Z,308.23
2019-05-21T05:46:55.165Z,307.35
2019-05-21T05:47:55.156Z,307.98
2019-05-21T05:48:55.144Z,308.14
2019-05-21T05:49:55.151Z,308.13
2019-05-21T05:50:55.140Z,307.44
2019-05-21T05:51:55.138Z,308.22
2019-05-21T05:52:55.108Z,307.84
2019-05-21T05:53:55.092Z,307.67
2019-05-21T05:54:55.092Z,307.80
2019-05-21T05:55:55.076Z,308.27
2019-05-21T05:56:55.062Z,307.85
2019-05-21T05:57:55.043Z,307.92
2019-05-21T05:58:55.036Z,308.15
2019-05-21T05:59:55.025Z,308.07
2019-05-21T06:00:55.018Z,308.07
2019-05-21T06:01:55.007Z,308.62
2019-05-21T06:02:55.030Z,308.31
2019-05-21T06:03:55.019Z,308.53
2019-05-21T06:04:54.966Z,308.50
2019-05-21T06:05:54.975Z,308.37
2019-05-21T06:06:54.941Z,309.12
2019-05-21T06:07:59.826Z,308.96
2019-05-21T06:08:55.919Z,308.39
2019-05-21T06:09:54.913Z,308.80
2019-05-21T06:10:54.901Z,308.90
2019-05-21T06:11:54.887Z,308.18
2019-05-21T06:12:54.875Z,309.15
2019-05-21T06:13:54.868Z,308.82
2019-05-21T06:14:54.856Z,309.23
2019-05-21T06:15:54.939Z,308.54
2019-05-21T06:16:54.832Z,308.98
2019-05-21T06:17:54.837Z,308.46
2019-05-21T06:18:54.812Z,308.59
2019-05-21T06:19:54.898Z,308.43
2019-05-21T06:20:54.784Z,308.71
2019-05-21T06:21:54.777Z,308.57
2019-05-21T06:22:54.759Z,309.24
2019-05-21T06:23:54.764Z,309.05
2019-05-21T06:24:54.756Z,309.04
2019-05-21T06:25:54.853Z,309.24
2019-05-21T06:26:54.738Z,308.82
2019-05-21T06:27:54.715Z,308.77
2019-05-21T06:28:55.290Z,308.85
2019-05-21T06:29:54.685Z,309.15
2019-05-21T06:30:54.685Z,308.67
2019-05-21T06:31:54.750Z,309.35
2019-05-21T06:32:54.651Z,309.25
2019-05-21T06:33:54.647Z,309.38
2019-05-21T06:34:54.629Z,309.10
2019-05-21T06:35:54.621Z,309.47
2019-05-21T06:36:54.602Z,309.44
2019-05-21T06:37:54.591Z,309.40
2019-05-21T06:38:54.582Z,309.43
2019-05-21T06:39:54.585Z,308.81
2019-05-21T06:40:54.577Z,309.22
2019-05-21T06:41:54.567Z,309.47
2019-05-21T06:42:54.564Z,309.44
2019-05-21T06:43:54.531Z,309.26
2019-05-21T06:44:54.539Z,309.37
2019-05-21T06:45:54.504Z,309.05
2019-05-21T06:46:54.499Z,309.44
2019-05-21T06:47:54.563Z,309.65
2019-05-21T06:48:54.563Z,309.17
2019-05-21T06:49:54.457Z,309.10
2019-05-21T06:50:54.445Z,309.28
2019-05-21T06:51:54.434Z,309.29
2019-05-21T06:52:54.439Z,309.42
2019-05-21T06:53:54.411Z,309.87
2019-05-21T06:54:54.469Z,309.32
2019-05-21T06:55:54.402Z,309.37
2019-05-21T06:56:54.370Z,309.62
2019-05-21T06:57:54.391Z,309.43
2019-05-21T06:58:54.393Z,309.09
2019-05-21T06:59:54.394Z,309.40
2019-05-21T07:00:54.338Z,309.22
2019-05-21T07:01:54.320Z,309.47
2019-05-21T07:02:54.313Z,309.70
2019-05-21T07:03:54.318Z,309.64
2019-05-21T07:04:54.297Z,309.49
2019-05-21T07:05:58.990Z,309.99
2019-05-21T07:06:55.263Z,309.28
2019-05-21T07:07:54.251Z,309.45
2019-05-21T07:08:54.250Z,309.48
2019-05-21T07:09:54.223Z,309.11
2019-05-21T07:10:54.210Z,309.02
2019-05-21T07:11:54.218Z,310.13
2019-05-21T07:12:54.189Z,309.38
2019-05-21T07:13:54.184Z,309.86
2019-05-21T07:14:54.188Z,309.33
2019-05-21T07:15:54.173Z,309.25
2019-05-21T07:16:54.146Z,309.43
2019-05-21T07:17:54.151Z,309.06
2019-05-21T07:18:54.163Z,309.83
2019-05-21T07:19:54.132Z,309.70
2019-05-21T07:20:54.118Z,309.55
2019-05-21T07:21:54.166Z,310.02
2019-05-21T07:22:54.167Z,309.43
2019-05-21T07:23:54.898Z,309.31
2019-05-21T07:24:54.056Z,309.76
2019-05-21T07:25:54.046Z,309.25
2019-05-21T07:26:54.040Z,309.25
2019-05-21T07:27:54.018Z,309.15
2019-05-21T07:28:55.381Z,308.92
2019-05-21T07:29:54.001Z,309.25
2019-05-21T07:30:53.994Z,309.32
2019-05-21T07:31:54.032Z,309.61
2019-05-21T07:32:54.051Z,309.29
2019-05-21T07:33:53.966Z,309.41
2019-05-21T07:34:53.965Z,308.86
2019-05-21T07:35:53.961Z,309.30
2019-05-21T07:36:53.933Z,309.34
2019-05-21T07:37:53.910Z,309.53
2019-05-21T07:38:54.387Z,309.75
2019-05-21T07:39:53.886Z,309.96
2019-05-21T07:40:53.878Z,309.49
2019-05-21T07:41:53.872Z,309.10
2019-05-21T07:42:53.879Z,309.53
2019-05-21T07:43:53.836Z,309.02
2019-05-21T07:44:53.831Z,309.91
2019-05-21T07:45:53.842Z,309.70
2019-05-21T07:46:53.807Z,309.36
2019-05-21T07:47:53.801Z,309.69
2019-05-21T07:48:53.782Z,309.33
2019-05-21T07:49:53.773Z,309.31
2019-05-21T07:50:53.897Z,309.28
2019-05-21T07:51:53.774Z,309.54
2019-05-21T07:52:53.751Z,309.25
2019-05-21T07:53:53.775Z,310.21
2019-05-21T07:54:53.717Z,309.36
2019-05-21T07:55:53.706Z,309.67
2019-05-21T07:56:53.750Z,308.91
2019-05-21T07:57:53.695Z,308.99
2019-05-21T07:58:53.685Z,308.99
2019-05-21T07:59:53.659Z,309.67
2019-05-21T08:00:53.654Z,309.61
2019-05-21T08:01:53.636Z,308.84
2019-05-21T08:02:53.639Z,309.38
2019-05-21T08:03:53.751Z,309.10
2019-05-21T08:04:53.606Z,309.27
2019-05-21T08:05:53.587Z,309.28
2019-05-21T08:06:53.605Z,309.50
2019-05-21T08:07:53.566Z,309.74
2019-05-21T08:09:11.367Z,309.50
2019-05-21T08:09:54.543Z,309.54
2019-05-21T08:10:53.543Z,309.37
2019-05-21T08:11:53.555Z,309.88
2019-05-21T08:12:53.526Z,309.29
2019-05-21T08:13:53.513Z,309.42
2019-05-21T08:14:53.516Z,309.04
2019-05-21T08:15:53.511Z,309.38
2019-05-21T08:16:53.469Z,309.85
2019-05-21T08:17:53.470Z,309.16
2019-05-21T08:18:53.482Z,309.11
2019-05-21T08:19:53.439Z,309.21
2019-05-21T08:20:53.433Z,309.33
2019-05-21T08:21:53.425Z,309.33
2019-05-21T08:22:53.534Z,309.32
2019-05-21T08:23:53.390Z,309.18
2019-05-21T08:24:53.382Z,309.60
2019-05-21T08:25:53.362Z,308.73
2019-05-21T08:26:53.376Z,309.14
2019-05-21T08:27:53.352Z,309.55
2019-05-21T08:28:53.333Z,309.32
2019-05-21T08:29:53.321Z,309.23
2019-05-21T08:30:53.308Z,309.64
2019-05-21T08:31:53.301Z,309.55
2019-05-21T08:32:53.291Z,309.11
2019-05-21T08:33:53.273Z,309.98
2019-05-21T08:34:53.262Z,309.22
2019-05-21T08:35:53.284Z,309.36
2019-05-21T08:36:53.240Z,309.47
2019-05-21T08:37:53.232Z,309.43
2019-05-21T08:38:53.216Z,309.20
2019-05-21T08:39:53.209Z,309.47
2019-05-21T08:40:53.189Z,309.59
2019-05-21T08:41:53.200Z,309.16
2019-05-21T08:42:53.176Z,309.82
2019-05-21T08:43:53.171Z,309.37
2019-05-21T08:44:53.151Z,309.38
2019-05-21T08:45:53.142Z,309.34
2019-05-21T08:46:53.129Z,309.31
2019-05-21T08:47:53.111Z,309.74
2019-05-21T08:48:53.106Z,309.01
2019-05-21T08:49:53.114Z,309.38
2019-05-21T08:50:53.089Z,309.54
2019-05-21T08:51:53.136Z,309.51
2019-05-21T08:52:53.076Z,309.74
2019-05-21T08:53:53.047Z,309.63
2019-05-21T08:55:05.911Z,310.13
2019-05-21T08:55:54.023Z,309.53
2019-05-21T08:56:53.016Z,310.12
2019-05-21T08:58:06.581Z,309.37
2019-05-21T08:58:54.038Z,309.44
2019-05-21T08:59:52.990Z,309.73
2019-05-21T09:00:52.975Z,309.53
2019-05-21T09:01:52.998Z,309.89
2019-05-21T09:02:52.953Z,309.39
2019-05-21T09:03:52.958Z,309.41
2019-05-21T09:04:52.927Z,309.47
2019-05-21T09:05:52.922Z,309.70
2019-05-21T09:06:52.905Z,309.73
2019-05-21T09:07:54.116Z,309.75
2019-05-21T09:08:52.880Z,309.54
2019-05-21T09:09:52.899Z,309.18
2019-05-21T09:10:52.854Z,309.76
2019-05-21T09:11:52.851Z,309.96
2019-05-21T09:12:52.841Z,309.67
2019-05-21T09:13:52.874Z,309.83
2019-05-21T09:14:52.820Z,309.97
2019-05-21T09:15:52.807Z,309.61
2019-05-21T09:16:52.810Z,310.13
2019-05-21T09:17:52.798Z,309.78
2019-05-21T09:18:52.767Z,310.08
2019-05-21T09:19:52.755Z,309.90
2019-05-21T09:20:52.758Z,309.62
2019-05-21T09:21:52.734Z,309.66
2019-05-21T09:22:52.734Z,309.81
2019-05-21T09:23:52.712Z,310.15
2019-05-21T09:24:52.704Z,310.48
2019-05-21T09:25:52.691Z,309.95
2019-05-21T09:26:52.681Z,309.49
2019-05-21T09:27:52.665Z,309.57
2019-05-21T09:28:52.683Z,309.93
2019-05-21T09:29:52.650Z,309.82
2019-05-21T09:30:52.654Z,310.15
2019-05-21T09:31:52.645Z,309.91
2019-05-21T09:32:52.614Z,309.52
2019-05-21T09:33:52.610Z,309.86
2019-05-21T09:34:52.614Z,309.79
2019-05-21T09:35:52.575Z,309.49
2019-05-21T09:36:52.569Z,309.63
2019-05-21T09:37:52.579Z,309.52
2019-05-21T09:38:52.569Z,310.25
2019-05-21T09:39:52.575Z,309.95
2019-05-21T09:40:52.570Z,309.76
2019-05-21T09:41:52.513Z,310.00
2019-05-21T09:42:52.498Z,309.91
2019-05-21T09:43:52.490Z,309.74
2019-05-21T09:44:52.485Z,310.02
2019-05-21T09:45:52.502Z,309.72
2019-05-21T09:46:52.451Z,309.59
2019-05-21T09:47:52.445Z,309.33
2019-05-21T09:48:54.281Z,309.25
2019-05-21T09:49:52.425Z,309.48
2019-05-21T09:50:52.412Z,309.01
2019-05-21T09:51:52.416Z,308.82
2019-05-21T09:52:52.465Z,309.17
2019-05-21T09:53:52.383Z,309.16
2019-05-21T09:54:52.389Z,309.06
2019-05-21T09:55:52.394Z,309.01
2019-05-21T09:56:52.345Z,309.36
2019-05-21T09:57:52.372Z,309.10
2019-05-21T09:58:52.320Z,309.16
2019-05-21T09:59:52.310Z,309.85
2019-05-21T10:00:52.298Z,308.95
2019-05-21T10:01:52.306Z,309.25
2019-05-21T10:02:52.292Z,309.15
2019-05-21T10:03:52.270Z,309.63
2019-05-21T10:04:52.259Z,309.10
2019-05-21T10:05:52.252Z,309.16
2019-05-21T10:06:52.236Z,309.74
2019-05-21T10:07:52.233Z,309.59
2019-05-21T10:08:52.210Z,309.84
2019-05-21T10:09:52.200Z,309.85
2019-05-21T10:10:52.188Z,309.50
2019-05-21T10:11:52.172Z,309.95
2019-05-21T10:12:52.172Z,309.40
2019-05-21T10:13:52.163Z,309.22
2019-05-21T10:14:52.148Z,309.57
2019-05-21T10:15:52.130Z,309.75
2019-05-21T10:16:52.118Z,309.03
2019-05-21T10:17:52.110Z,309.76
2019-05-21T10:18:52.118Z,308.77
2019-05-21T10:19:52.103Z,309.51
2019-05-21T10:20:52.095Z,309.60
2019-05-21T10:21:52.067Z,309.28
2019-05-21T10:22:52.072Z,308.96
2019-05-21T10:23:52.043Z,309.44
2019-05-21T10:24:52.057Z,309.03
2019-05-21T10:25:52.048Z,309.52
2019-05-21T10:26:52.008Z,309.50
2019-05-21T10:27:51.993Z,309.39
2019-05-21T10:28:51.984Z,309.87
2019-05-21T10:29:51.983Z,309.42
2019-05-21T10:30:52.011Z,309.63
2019-05-21T10:31:51.948Z,309.17
2019-05-21T10:32:51.936Z,309.49
2019-05-21T10:33:51.937Z,309.65
2019-05-21T10:34:51.939Z,309.55
2019-05-21T10:35:51.949Z,309.45
2019-05-21T10:36:51.898Z,309.38
2019-05-21T10:37:54.938Z,309.37
2019-05-21T10:38:51.871Z,309.15
2019-05-21T10:39:51.861Z,309.73
2019-05-21T10:40:51.852Z,308.66
2019-05-21T10:41:51.849Z,309.51
2019-05-21T10:42:51.846Z,309.10
2019-05-21T10:43:51.846Z,309.33
2019-05-21T10:44:51.803Z,309.46
2019-05-21T10:45:51.805Z,309.17
2019-05-21T10:46:51.805Z,309.28
2019-05-21T10:47:51.766Z,309.20
2019-05-21T10:48:51.763Z,309.10
2019-05-21T10:49:51.746Z,309.54
2019-05-21T10:50:51.730Z,309.25
2019-05-21T10:51:51.731Z,308.92
2019-05-21T10:52:51.741Z,309.41
2019-05-21T10:53:51.728Z,308.70
2019-05-21T10:54:51.704Z,309.33
2019-05-21T10:55:51.674Z,309.15
2019-05-21T10:56:51.665Z,309.38
2019-05-21T10:57:51.670Z,309.05
2019-05-21T10:58:51.640Z,308.93
2019-05-21T10:59:51.633Z,308.90
2019-05-21T11:00:51.622Z,309.03
2019-05-21T11:01:51.652Z,309.64
2019-05-21T11:02:51.703Z,309.52
2019-05-21T11:03:51.589Z,309.30
2019-05-21T11:04:51.581Z,309.17
2019-05-21T11:06:08.603Z,309.93
2019-05-21T11:06:52.557Z,309.46
2019-05-21T11:07:51.539Z,308.96
2019-05-21T11:08:51.529Z,309.53
2019-05-21T11:09:51.535Z,308.98
2019-05-21T11:10:51.528Z,308.97
2019-05-21T11:11:51.511Z,309.58
2019-05-21T11:12:51.484Z,309.86
2019-05-21T11:13:51.479Z,309.50
2019-05-21T11:14:51.471Z,309.25
2019-05-21T11:15:51.471Z,309.43
2019-05-21T11:16:51.451Z,309.33
2019-05-21T11:18:09.033Z,309.16
2019-05-21T11:18:52.420Z,309.15
2019-05-21T11:19:51.411Z,309.99
2019-05-21T11:20:51.801Z,309.84
2019-05-21T11:21:51.389Z,309.05
2019-05-21T11:22:51.386Z,309.32
2019-05-21T11:23:51.419Z,309.30
2019-05-21T11:24:51.351Z,308.89
2019-05-21T11:25:51.349Z,309.12
2019-05-21T11:26:51.351Z,309.26
2019-05-21T11:27:51.324Z,308.87
2019-05-21T11:28:51.329Z,309.05
2019-05-21T11:29:51.326Z,309.29
2019-05-21T11:30:51.772Z,309.25
2019-05-21T11:31:57.150Z,309.06
2019-05-21T11:32:52.263Z,309.27
2019-05-21T11:33:51.266Z,308.89
2019-05-21T11:34:51.242Z,309.26
2019-05-21T11:35:51.227Z,308.87
2019-05-21T11:36:51.222Z,308.69
2019-05-21T11:37:51.222Z,308.96
2019-05-21T11:38:51.207Z,308.68
2019-05-21T11:39:51.191Z,308.62
2019-05-21T11:40:51.496Z,308.71
2019-05-21T11:41:51.720Z,308.28
2019-05-21T11:42:53.119Z,308.11
2019-05-21T11:43:51.164Z,307.91
2019-05-21T11:44:51.136Z,307.69
2019-05-21T11:45:51.137Z,307.16
2019-05-21T11:46:51.112Z,307.30
2019-05-21T11:47:54.424Z,307.20
2019-05-21T11:48:51.133Z,306.67
2019-05-21T11:49:51.077Z,307.10
2019-05-21T11:50:51.059Z,306.39
2019-05-21T11:51:51.052Z,307.05
2019-05-21T11:52:51.040Z,307.00
2019-05-21T11:53:51.223Z,306.46
2019-05-21T11:54:51.032Z,306.66
2019-05-21T11:55:51.047Z,306.85
2019-05-21T11:56:50.996Z,307.01
2019-05-21T11:57:50.996Z,306.60
2019-05-21T11:58:51.039Z,307.17
2019-05-21T11:59:50.991Z,307.12
2019-05-21T12:00:50.966Z,306.93
2019-05-21T12:01:50.944Z,306.56
2019-05-21T12:02:50.929Z,307.25
2019-05-21T12:03:50.929Z,307.34
2019-05-21T12:04:50.914Z,307.57
2019-05-21T12:05:50.961Z,307.05
2019-05-21T12:06:50.878Z,307.65
2019-05-21T12:07:50.867Z,307.25
2019-05-21T12:08:56.599Z,307.09
2019-05-21T12:09:51.865Z,306.88
2019-05-21T12:10:50.850Z,307.95
2019-05-21T12:11:50.822Z,307.56
2019-05-21T12:12:50.862Z,307.47
2019-05-21T12:13:50.801Z,307.84
2019-05-21T12:14:50.807Z,307.38
2019-05-21T12:15:50.783Z,307.60
2019-05-21T12:16:50.774Z,307.45
2019-05-21T12:17:50.764Z,307.44
2019-05-21T12:18:50.839Z,307.72
2019-05-21T12:19:50.806Z,307.53
2019-05-21T12:20:50.779Z,307.83
2019-05-21T12:21:50.731Z,307.54
2019-05-21T12:22:50.716Z,307.81
2019-05-21T12:23:50.699Z,307.63
2019-05-21T12:24:50.696Z,308.06
2019-05-21T12:25:50.701Z,307.55
2019-05-21T12:26:50.680Z,307.77
2019-05-21T12:27:50.672Z,308.02
2019-05-21T12:28:50.687Z,307.52